KMYF

Montgomery-Gibbs Executive Airport

San Diego, California, USA
METAR KMYF 140153Z 00000KT 10SM CLR 16/12 A3018 RMK AO2 SLP218 T01560122
Observed Flight Rules
Dec-14 @ 01:53 UTC (an hour ago) Visual Flight Rules
Visibility Clouds
10 miles
  • Clear skies
Temperatures Readings
Current 16°C / 61°F
Dewpoint 12°C / 54°F
Humidity 77%
Altimeter 30.18" Hg
Pressure 1021.8 hPa
Elevation 136
METAR KMYF 140153Z 00000KT 10SM CLR 16/12 A3018 RMK AO2 SLP218 T01560122
Observed Flight Rules
Dec-14 @ 01:53 UTC
(an hour ago)
VFR
Clouds
  • Clear skies
Temperature Dewpoint
16°C / 61°F 12°C / 54°F
Humidity Altimeter Pressure
77% 30.18" Hg 1021.8 hPa